Albertson, New York
Current Conditions -  °F | °C
As of 12:51 AM on Saturday 25 Oct 2014 (Local Time) from KJFK Reporting Station
Scattered Clouds Scattered Clouds  
Wind Chill: 12°   Ceiling: Unl
Heat Index: 12°   Visibility: 10mi
Dew Point:   Wind: 8mph
Humidity: 59%   Direction: 330°NNW
Pressure: 29.85"   Gusts: NA
Location:  40.77°N, 73.65°W
Report Text: KJFK 250451Z 33007KT 10SM SCT250 12/04 A2985 RMK AO2 SLP107 T01170039 401720106
Loading
Personal Weather Stations






























Interactive Weather Map
Tropical Storm Tracking
New forecast layout! Learn more

10-Day Weather Forecast

Advertisements
Track Severe Weather on mobile